createdAt,value
2023-04-10T00:01:00.107Z,2.47
2023-04-10T00:04:26.831Z,2.83
2023-04-10T00:07:50.802Z,3.00
2023-04-10T00:11:14.623Z,3.37
2023-04-10T00:14:38.303Z,3.23
2023-04-10T00:18:03.038Z,2.40
2023-04-10T00:21:27.148Z,3.30
2023-04-10T00:24:50.512Z,2.30
2023-04-10T00:28:14.359Z,2.23
2023-04-10T00:31:38.156Z,3.23
2023-04-10T00:35:04.187Z,3.17
2023-04-10T00:38:27.911Z,4.10
2023-04-10T00:41:51.681Z,3.53
2023-04-10T00:45:15.100Z,3.97
2023-04-10T00:48:39.138Z,3.87
2023-04-10T00:52:04.027Z,3.37
2023-04-10T00:55:27.939Z,3.13
2023-04-10T00:58:51.776Z,3.80
2023-04-10T01:02:15.391Z,3.30
2023-04-10T01:05:49.583Z,3.73
2023-04-10T01:09:29.748Z,3.27
2023-04-10T01:13:07.882Z,3.40
2023-04-10T01:16:41.537Z,3.07
2023-04-10T01:20:13.354Z,4.13
2023-04-10T01:24:08.733Z,4.47
2023-04-10T01:27:47.937Z,4.17
2023-04-10T01:31:20.768Z,3.70
2023-04-10T01:34:50.490Z,4.93
2023-04-10T01:38:20.038Z,3.33
2023-04-10T01:41:46.238Z,3.60
2023-04-10T01:45:18.544Z,3.47
2023-04-10T01:48:47.007Z,4.17
2023-04-10T01:52:12.103Z,4.70
2023-04-10T01:55:39.833Z,3.00
2023-04-10T01:59:05.543Z,5.20
2023-04-10T02:02:32.660Z,3.40
2023-04-10T02:06:12.366Z,4.93
2023-04-10T02:09:48.873Z,3.90
2023-04-10T02:13:17.209Z,4.47
2023-04-10T02:16:42.095Z,4.40
2023-04-10T02:20:08.877Z,4.30
2023-04-10T02:23:33.673Z,3.90
2023-04-10T02:26:57.747Z,3.43
2023-04-10T02:30:22.079Z,4.13
2023-04-10T02:33:46.364Z,3.53
2023-04-10T02:37:10.093Z,5.90
2023-04-10T02:40:35.239Z,3.60
2023-04-10T02:44:10.384Z,3.83
2023-04-10T02:47:34.526Z,3.67
2023-04-10T02:50:59.465Z,3.50
2023-04-10T02:54:24.742Z,3.57
2023-04-10T02:57:49.854Z,3.30
2023-04-10T03:01:13.827Z,3.80
2023-04-10T03:04:43.036Z,3.27
2023-04-10T03:08:07.268Z,3.60
2023-04-10T03:11:31.546Z,4.93
2023-04-10T03:14:56.322Z,4.13
2023-04-10T03:18:19.745Z,4.30
2023-04-10T03:21:46.815Z,3.63
2023-04-10T03:25:11.295Z,3.83
2023-04-10T03:28:36.595Z,4.53
2023-04-10T03:32:01.676Z,4.37
2023-04-10T03:35:26.234Z,3.77
2023-04-10T03:38:50.015Z,4.17
2023-04-10T03:42:13.851Z,5.30
2023-04-10T03:45:37.767Z,3.70
2023-04-10T03:49:02.672Z,3.73
2023-04-10T03:52:29.403Z,3.80
2023-04-10T03:55:53.740Z,3.90
2023-04-10T03:59:19.335Z,3.83
2023-04-10T04:02:43.367Z,3.23
2023-04-10T04:06:10.058Z,4.53
2023-04-10T04:09:41.954Z,4.50
2023-04-10T04:13:16.694Z,3.60
2023-04-10T04:16:50.089Z,3.60
2023-04-10T04:20:48.602Z,3.53
2023-04-10T04:24:19.366Z,3.47
2023-04-10T04:27:58.333Z,4.67
2023-04-10T04:31:33.215Z,3.37
2023-04-10T04:35:10.537Z,3.33
2023-04-10T04:38:54.271Z,4.20
2023-04-10T04:42:46.362Z,3.47
2023-04-10T04:46:21.380Z,4.70
2023-04-10T04:49:47.735Z,4.40
2023-04-10T04:53:26.117Z,5.77
2023-04-10T04:57:25.484Z,5.00
2023-04-10T05:01:10.589Z,4.20
2023-04-10T05:04:51.092Z,4.10
2023-04-10T05:08:35.496Z,5.17
2023-04-10T05:12:07.439Z,6.70
2023-04-10T05:15:50.682Z,6.00
2023-04-10T05:19:36.305Z,4.30
2023-04-10T05:23:11.432Z,3.67
2023-04-10T05:26:53.717Z,3.67
2023-04-10T05:30:37.854Z,3.87
2023-04-10T05:34:09.540Z,3.57
2023-04-10T05:37:43.306Z,7.07
2023-04-10T05:41:42.484Z,4.57
2023-04-10T05:45:24.471Z,3.63
2023-04-10T05:49:06.800Z,3.10
2023-04-10T05:52:49.537Z,3.20
2023-04-10T05:56:31.378Z,3.47
2023-04-10T06:00:30.555Z,5.00
2023-04-10T06:04:17.543Z,3.10
2023-04-10T06:07:42.384Z,3.43
2023-04-10T06:11:07.950Z,3.30
2023-04-10T06:14:31.822Z,3.50
2023-04-10T06:17:56.523Z,4.30
2023-04-10T06:21:20.470Z,2.90
2023-04-10T06:24:44.231Z,3.30
2023-04-10T06:28:09.377Z,4.80
2023-04-10T06:31:35.421Z,3.43
2023-04-10T06:34:59.580Z,3.70
2023-04-10T06:38:23.832Z,3.30
2023-04-10T06:41:48.254Z,3.13
2023-04-10T06:45:26.671Z,3.50
2023-04-10T06:48:50.538Z,3.43
2023-04-10T06:52:14.824Z,3.60
2023-04-10T06:55:38.595Z,3.50
2023-04-10T06:59:02.453Z,3.97
2023-04-10T07:02:27.450Z,3.93
2023-04-10T07:05:51.282Z,4.43
2023-04-10T07:09:15.454Z,4.57
2023-04-10T07:12:39.224Z,4.33
2023-04-10T07:16:03.107Z,4.20
2023-04-10T07:19:28.055Z,4.50
2023-04-10T07:22:51.543Z,3.53
2023-04-10T07:26:16.455Z,4.53
2023-04-10T07:29:40.003Z,4.33
2023-04-10T07:33:03.595Z,3.80
2023-04-10T07:36:28.742Z,3.87
2023-04-10T07:39:52.293Z,3.90
2023-04-10T07:43:16.393Z,3.57
2023-04-10T07:46:40.139Z,3.50
2023-04-10T07:50:04.228Z,3.10
2023-04-10T07:53:29.148Z,3.20
2023-04-10T07:56:53.789Z,3.30
2023-04-10T08:00:18.545Z,3.07
2023-04-10T08:03:43.158Z,3.00
2023-04-10T08:07:07.002Z,2.57
2023-04-10T08:10:31.883Z,2.57
2023-04-10T08:13:58.143Z,2.90
2023-04-10T08:17:21.581Z,2.90
2023-04-10T08:20:45.361Z,2.67
2023-04-10T08:24:08.752Z,2.90
2023-04-10T08:27:33.632Z,2.97
2023-04-10T08:30:57.093Z,2.70
2023-04-10T08:34:20.592Z,2.87
2023-04-10T08:37:49.614Z,2.73
2023-04-10T08:41:20.012Z,2.53
2023-04-10T08:44:45.793Z,2.50
2023-04-10T08:48:11.513Z,2.57
2023-04-10T08:51:42.678Z,2.40
2023-04-10T08:55:12.343Z,2.70
2023-04-10T08:58:36.543Z,2.20
2023-04-10T09:02:01.685Z,2.73
2023-04-10T09:05:28.160Z,2.23
2023-04-10T09:08:52.055Z,2.20
2023-04-10T09:12:17.134Z,2.20
2023-04-10T09:16:01.226Z,2.23
2023-04-10T09:19:33.880Z,2.50
2023-04-10T09:22:57.735Z,2.30
2023-04-10T09:26:30.228Z,2.07
2023-04-10T09:29:53.648Z,2.00
2023-04-10T09:33:27.400Z,2.30
2023-04-10T09:36:58.514Z,1.83
2023-04-10T09:40:25.371Z,2.10
2023-04-10T09:43:48.967Z,1.90
2023-04-10T09:47:22.060Z,1.77
2023-04-10T09:50:45.781Z,1.90
2023-04-10T09:54:10.585Z,2.10
2023-04-10T09:57:36.186Z,2.77
2023-04-10T10:00:59.713Z,2.10
2023-04-10T10:04:23.676Z,1.97
2023-04-10T10:07:47.765Z,1.90
2023-04-10T10:11:18.969Z,1.77
2023-04-10T10:14:51.493Z,2.53
2023-04-10T10:18:26.755Z,1.73
2023-04-10T10:21:52.822Z,2.80
2023-04-10T10:25:17.151Z,1.90
2023-04-10T10:28:43.018Z,1.87
2023-04-10T10:32:09.427Z,1.90
2023-04-10T10:35:33.126Z,2.00
2023-04-10T10:39:13.922Z,1.60
2023-04-10T10:42:46.491Z,1.70
2023-04-10T10:46:19.962Z,1.60
2023-04-10T10:50:02.428Z,1.60
2023-04-10T10:53:34.894Z,1.60
2023-04-10T10:56:58.978Z,1.60
2023-04-10T11:00:24.027Z,1.60
2023-04-10T11:03:49.601Z,1.50
2023-04-10T11:07:13.695Z,1.60
2023-04-10T11:11:03.809Z,1.50
2023-04-10T11:14:32.070Z,1.73
2023-04-10T11:17:56.079Z,1.50
2023-04-10T11:21:23.305Z,1.50
2023-04-10T11:24:58.526Z,1.47
2023-04-10T11:28:39.169Z,1.70
2023-04-10T11:32:05.852Z,1.33
2023-04-10T11:35:31.531Z,1.30
2023-04-10T11:38:58.192Z,1.40
2023-04-10T11:42:22.382Z,2.70
2023-04-10T11:45:46.329Z,1.50
2023-04-10T11:49:11.661Z,1.40
2023-04-10T11:52:35.576Z,2.13
2023-04-10T11:56:00.576Z,1.40
2023-04-10T11:59:24.669Z,1.30
2023-04-10T12:02:53.955Z,1.40
2023-04-10T12:06:19.468Z,1.40
2023-04-10T12:09:43.479Z,1.30
2023-04-10T12:13:08.768Z,1.20
2023-04-10T12:16:34.269Z,1.50
2023-04-10T12:19:58.155Z,1.30
2023-04-10T12:23:22.032Z,1.40
2023-04-10T12:26:50.514Z,1.37
2023-04-10T12:30:15.639Z,1.40
2023-04-10T12:33:40.298Z,1.20
2023-04-10T12:37:04.549Z,1.30
2023-04-10T12:40:28.446Z,1.40
2023-04-10T12:43:53.870Z,1.30
2023-04-10T12:47:18.787Z,1.30
2023-04-10T12:50:49.067Z,1.30
2023-04-10T12:54:13.480Z,1.30
2023-04-10T12:57:38.101Z,1.30
2023-04-10T13:01:07.451Z,1.20
2023-04-10T13:04:33.327Z,1.40
2023-04-10T13:07:57.236Z,1.40
2023-04-10T13:11:21.596Z,1.30
2023-04-10T13:14:46.215Z,1.30
2023-04-10T13:18:11.357Z,1.43
2023-04-10T13:21:36.535Z,1.43
2023-04-10T13:25:00.442Z,1.63
2023-04-10T13:28:24.273Z,1.30
2023-04-10T13:31:48.140Z,1.40
2023-04-10T13:35:12.434Z,1.30
2023-04-10T13:38:37.344Z,1.40
2023-04-10T13:42:02.006Z,1.27
2023-04-10T13:45:25.504Z,1.50
2023-04-10T13:48:49.056Z,1.30
2023-04-10T13:52:12.843Z,1.40
2023-04-10T13:55:38.831Z,1.50
2023-04-10T13:59:02.604Z,1.50
2023-04-10T14:02:26.612Z,1.40
2023-04-10T14:05:50.624Z,1.40
2023-04-10T14:09:14.385Z,1.30
2023-04-10T14:12:39.592Z,1.30
2023-04-10T14:16:04.069Z,1.33
2023-04-10T14:19:28.025Z,1.60
2023-04-10T14:22:51.818Z,1.30
2023-04-10T14:26:15.740Z,1.40
2023-04-10T14:29:50.529Z,1.30
2023-04-10T14:33:19.731Z,1.27
2023-04-10T14:36:43.945Z,1.30
2023-04-10T14:40:10.832Z,1.30
2023-04-10T14:43:34.679Z,1.30
2023-04-10T14:46:59.689Z,1.37
2023-04-10T14:50:23.310Z,1.30
2023-04-10T14:53:47.230Z,1.40
2023-04-10T14:57:12.257Z,1.23
2023-04-10T15:00:36.677Z,2.27
2023-04-10T15:04:01.910Z,1.40
2023-04-10T15:07:25.658Z,1.20
2023-04-10T15:10:50.961Z,1.50
2023-04-10T15:14:14.769Z,1.50
2023-04-10T15:17:38.301Z,1.30
2023-04-10T15:21:03.482Z,1.40
2023-04-10T15:24:29.149Z,1.40
2023-04-10T15:27:57.120Z,1.30
2023-04-10T15:31:24.004Z,1.30
2023-04-10T15:34:47.852Z,1.40
2023-04-10T15:38:14.145Z,1.73
2023-04-10T15:41:38.304Z,1.20
2023-04-10T15:45:01.860Z,1.30
2023-04-10T15:48:25.823Z,1.30
2023-04-10T15:51:49.684Z,1.43
2023-04-10T15:55:15.601Z,1.40
2023-04-10T15:58:39.476Z,1.40
2023-04-10T16:02:03.728Z,1.33
2023-04-10T16:05:27.795Z,1.47
2023-04-10T16:08:53.059Z,2.07
2023-04-10T16:12:18.243Z,1.67
2023-04-10T16:15:42.098Z,1.30
2023-04-10T16:19:05.897Z,1.50
2023-04-10T16:22:29.690Z,1.60
2023-04-10T16:25:53.766Z,1.20
2023-04-10T16:29:19.841Z,1.30
2023-04-10T16:32:43.361Z,1.33
2023-04-10T16:36:08.215Z,1.23
2023-04-10T16:39:31.950Z,1.47
2023-04-10T16:42:55.734Z,1.50
2023-04-10T16:46:21.417Z,1.30
2023-04-10T16:49:45.670Z,1.50
2023-04-10T16:53:09.481Z,2.37
2023-04-10T16:56:33.454Z,1.90
2023-04-10T16:59:58.837Z,1.53
2023-04-10T17:03:23.756Z,1.90
2023-04-10T17:06:47.678Z,1.40
2023-04-10T17:10:12.043Z,1.53
2023-04-10T17:13:36.963Z,1.30
2023-04-10T17:17:00.858Z,1.37
2023-04-10T17:20:25.904Z,1.40
2023-04-10T17:23:49.801Z,1.67
2023-04-10T17:27:14.673Z,1.30
2023-04-10T17:30:38.521Z,1.60
2023-04-10T17:34:03.825Z,1.50
2023-04-10T17:37:28.996Z,1.30
2023-04-10T17:40:53.145Z,1.40
2023-04-10T17:44:16.972Z,3.00
2023-04-10T17:47:41.158Z,1.30
2023-04-10T17:51:06.866Z,1.53
2023-04-10T17:54:32.071Z,2.73
2023-04-10T17:57:57.936Z,2.47
2023-04-10T18:01:26.091Z,1.60
2023-04-10T18:04:49.935Z,1.50
2023-04-10T18:08:14.463Z,1.50
2023-04-10T18:11:39.960Z,1.80
2023-04-10T18:15:04.273Z,1.70
2023-04-10T18:18:28.002Z,1.30
2023-04-10T18:21:52.164Z,1.40
2023-04-10T18:25:16.092Z,1.50
2023-04-10T18:28:43.114Z,1.30
2023-04-10T18:32:08.572Z,1.33
2023-04-10T18:35:32.484Z,1.33
2023-04-10T18:38:58.000Z,1.57
2023-04-10T18:42:21.796Z,1.40
2023-04-10T18:45:46.992Z,1.30
2023-04-10T18:49:11.294Z,1.20
2023-04-10T18:52:35.154Z,1.20
2023-04-10T18:55:58.923Z,1.20
2023-04-10T18:59:22.684Z,1.50
2023-04-10T19:02:48.150Z,1.50
2023-04-10T19:06:11.883Z,1.20
2023-04-10T19:09:35.715Z,4.33
2023-04-10T19:12:59.493Z,1.20
2023-04-10T19:16:23.521Z,1.40
2023-04-10T19:19:48.866Z,1.50
2023-04-10T19:23:12.839Z,1.20
2023-04-10T19:26:37.750Z,1.40
2023-04-10T19:30:01.732Z,1.27
2023-04-10T19:33:25.658Z,1.40
2023-04-10T19:36:50.592Z,1.40
2023-04-10T19:40:14.632Z,1.50
2023-04-10T19:43:38.482Z,1.30
2023-04-10T19:47:02.384Z,1.27
2023-04-10T19:50:26.177Z,1.60
2023-04-10T19:53:50.937Z,1.53
2023-04-10T19:57:14.399Z,1.30
2023-04-10T20:00:38.168Z,1.30
2023-04-10T20:04:02.224Z,1.90
2023-04-10T20:07:26.458Z,1.47
2023-04-10T20:10:51.642Z,1.60
2023-04-10T20:14:15.323Z,1.30
2023-04-10T20:17:39.589Z,1.30
2023-04-10T20:21:04.566Z,1.67
2023-04-10T20:24:28.480Z,1.20
2023-04-10T20:27:53.332Z,1.50
2023-04-10T20:31:17.216Z,1.30
2023-04-10T20:34:40.732Z,1.40
2023-04-10T20:38:04.653Z,1.67
2023-04-10T20:41:28.641Z,1.30
2023-04-10T20:44:53.848Z,1.60
2023-04-10T20:48:17.584Z,1.40
2023-04-10T20:51:41.363Z,2.47
2023-04-10T20:55:05.662Z,1.50
2023-04-10T20:58:29.491Z,1.60
2023-04-10T21:01:54.736Z,1.23
2023-04-10T21:05:18.799Z,1.50
2023-04-10T21:08:42.574Z,1.40
2023-04-10T21:12:06.670Z,1.60
2023-04-10T21:15:30.162Z,1.50
2023-04-10T21:18:55.613Z,2.00
2023-04-10T21:22:19.654Z,1.30
2023-04-10T21:25:49.330Z,1.27
2023-04-10T21:29:13.136Z,2.50
2023-04-10T21:32:36.594Z,1.20
2023-04-10T21:36:01.422Z,1.63
2023-04-10T21:39:24.912Z,1.60
2023-04-10T21:42:48.643Z,1.67
2023-04-10T21:46:12.457Z,1.40
2023-04-10T21:49:36.314Z,2.10
2023-04-10T21:53:01.073Z,1.33
2023-04-10T21:56:25.062Z,1.40
2023-04-10T21:59:48.429Z,1.30
2023-04-10T22:03:12.037Z,1.73
2023-04-10T22:06:35.856Z,1.80
2023-04-10T22:10:00.847Z,1.40
2023-04-10T22:13:30.684Z,1.40
2023-04-10T22:16:56.100Z,1.40
2023-04-10T22:20:20.071Z,1.50
2023-04-10T22:23:43.560Z,2.17
2023-04-10T22:27:08.732Z,1.30
2023-04-10T22:30:32.561Z,1.20
2023-04-10T22:33:56.324Z,1.30
2023-04-10T22:37:20.063Z,1.80
2023-04-10T22:40:43.870Z,1.30
2023-04-10T22:44:09.489Z,1.37
2023-04-10T22:47:33.217Z,2.07
2023-04-10T22:50:57.320Z,1.20
2023-04-10T22:54:21.057Z,1.30
2023-04-10T22:57:49.194Z,1.30
2023-04-10T23:01:14.285Z,2.07
2023-04-10T23:04:38.059Z,1.37
2023-04-10T23:08:01.914Z,1.30
2023-04-10T23:11:25.807Z,1.40
2023-04-10T23:14:49.583Z,1.30
2023-04-10T23:18:16.015Z,1.30
2023-04-10T23:21:39.820Z,1.20
2023-04-10T23:25:03.541Z,1.20
2023-04-10T23:28:27.417Z,1.20
2023-04-10T23:31:51.232Z,1.20
2023-04-10T23:35:16.535Z,1.63
2023-04-10T23:38:40.273Z,1.60
2023-04-10T23:42:04.495Z,1.17
2023-04-10T23:45:28.264Z,1.90
2023-04-10T23:48:54.157Z,1.67
2023-04-10T23:52:19.121Z,2.17
2023-04-10T23:55:43.033Z,2.13
2023-04-10T23:59:06.826Z,1.67
